Terminal Aerodrome Forecast
Issued by NWS

Home | Current Version | Previous Version | Text Only | Print | Product List | Glossary On
Versions: 1 2 3 4 5 6 7 8 9 10 11 12 13 14 15 16 17 18 19 20 21 22 23 24 25
000
FTUS43 KICT 212331
TAFSLN
TAF
KSLN 212331Z 2200/2224 28012KT P6SM SCT100
     FM220500 31016G23KT 5SM -RA OVC020
     FM221000 31020G30KT 2SM -SN OVC010
     FM221500 31026G37KT 1SM -SN BLSN OVC015
     FM222000 32027G38KT 3SM BLSN OVC025
     FM222200 32024G35KT P6SM BKN040=

USA.gov is the U.S. government's official web portal to all federal, state and local government web resources and services.